createdAt,value
2023-02-04T00:00:31.040Z,88899.00
2023-02-04T00:01:30.685Z,88903.00
2023-02-04T00:02:30.764Z,88901.00
2023-02-04T00:03:30.672Z,88903.00
2023-02-04T00:04:30.641Z,88905.00
2023-02-04T00:05:30.688Z,88895.00
2023-02-04T00:06:30.630Z,88901.00
2023-02-04T00:07:30.622Z,88899.00
2023-02-04T00:08:30.597Z,88903.00
2023-02-04T00:09:30.600Z,88899.00
2023-02-04T00:10:30.829Z,88893.00
2023-02-04T00:11:30.582Z,88891.00
2023-02-04T00:12:30.555Z,88899.00
2023-02-04T00:13:30.556Z,88905.00
2023-02-04T00:14:30.560Z,88899.00
2023-02-04T00:15:30.545Z,88903.00
2023-02-04T00:16:30.620Z,88895.00
2023-02-04T00:17:31.514Z,88891.00
2023-02-04T00:18:30.489Z,88895.00
2023-02-04T00:19:30.463Z,88905.00
2023-02-04T00:20:30.826Z,88905.00
2023-02-04T00:21:30.447Z,88897.00
2023-02-04T00:22:30.451Z,88899.00
2023-02-04T00:23:30.413Z,88893.00
2023-02-04T00:24:30.442Z,88891.00
2023-02-04T00:25:30.399Z,88899.00
2023-02-04T00:26:30.377Z,88895.00
2023-02-04T00:27:30.409Z,88895.00
2023-02-04T00:28:30.374Z,88897.00
2023-02-04T00:29:30.350Z,88903.00
2023-02-04T00:30:30.711Z,88897.00
2023-02-04T00:31:30.401Z,88895.00
2023-02-04T00:32:30.307Z,88897.00
2023-02-04T00:33:30.308Z,88897.00
2023-02-04T00:34:30.288Z,88899.00
2023-02-04T00:35:30.286Z,88897.00
2023-02-04T00:36:30.391Z,88897.00
2023-02-04T00:37:30.275Z,88899.00
2023-02-04T00:38:30.251Z,88897.00
2023-02-04T00:39:30.242Z,88903.00
2023-02-04T00:40:30.591Z,88901.00
2023-02-04T00:41:30.257Z,88901.00
2023-02-04T00:42:30.226Z,88903.00
2023-02-04T00:43:30.200Z,88899.00
2023-02-04T00:44:30.181Z,88901.00
2023-02-04T00:45:30.205Z,88897.00
2023-02-04T00:46:30.203Z,88899.00
2023-02-04T00:47:30.157Z,88905.00
2023-02-04T00:48:30.993Z,88907.00
2023-02-04T00:49:30.143Z,88913.00
2023-02-04T00:50:30.505Z,88917.00
2023-02-04T00:51:30.130Z,88909.00
2023-02-04T00:52:30.133Z,88911.00
2023-02-04T00:53:30.140Z,88907.00
2023-02-04T00:54:30.109Z,88917.00
2023-02-04T00:55:30.092Z,88909.00
2023-02-04T00:56:30.076Z,88909.00
2023-02-04T00:57:30.149Z,88915.00
2023-02-04T00:58:30.075Z,88913.00
2023-02-04T00:59:30.043Z,88915.00
2023-02-04T01:00:30.509Z,88913.00
2023-02-04T01:01:30.048Z,88909.00
2023-02-04T01:02:30.058Z,88913.00
2023-02-04T01:03:30.061Z,88909.00
2023-02-04T01:04:30.010Z,88909.00
2023-02-04T01:05:30.012Z,88921.00
2023-02-04T01:06:29.999Z,88915.00
2023-02-04T01:07:30.048Z,88917.00
2023-02-04T01:08:29.958Z,88913.00
2023-02-04T01:09:29.970Z,88913.00
2023-02-04T01:10:30.242Z,88911.00
2023-02-04T01:11:29.958Z,88915.00
2023-02-04T01:12:29.948Z,88921.00
2023-02-04T01:13:29.919Z,88925.00
2023-02-04T01:14:29.898Z,88921.00
2023-02-04T01:15:29.898Z,88921.00
2023-02-04T01:16:30.055Z,88925.00
2023-02-04T01:17:29.885Z,88913.00
2023-02-04T01:18:29.864Z,88917.00
2023-02-04T01:19:29.859Z,88917.00
2023-02-04T01:20:30.116Z,88913.00
2023-02-04T01:21:29.816Z,88913.00
2023-02-04T01:22:29.822Z,88915.00
2023-02-04T01:23:29.817Z,88913.00
2023-02-04T01:24:29.789Z,88915.00
2023-02-04T01:25:29.821Z,88913.00
2023-02-04T01:26:29.764Z,88915.00
2023-02-04T01:27:29.832Z,88911.00
2023-02-04T01:28:29.750Z,88905.00
2023-02-04T01:29:29.723Z,88911.00
2023-02-04T01:30:30.074Z,88911.00
2023-02-04T01:31:29.755Z,88905.00
2023-02-04T01:32:29.737Z,88903.00
2023-02-04T01:33:32.550Z,88907.00
2023-02-04T01:34:29.692Z,88905.00
2023-02-04T01:35:29.664Z,88903.00
2023-02-04T01:36:29.670Z,88899.00
2023-02-04T01:37:29.671Z,88903.00
2023-02-04T01:38:29.636Z,88903.00
2023-02-04T01:39:29.682Z,88901.00
2023-02-04T01:40:30.018Z,88899.00
2023-02-04T01:41:29.639Z,88895.00
2023-02-04T01:42:29.636Z,88899.00
2023-02-04T01:43:29.611Z,88901.00
2023-02-04T01:44:29.610Z,88911.00
2023-02-04T01:45:29.578Z,88917.00
2023-02-04T01:46:29.595Z,88913.00
2023-02-04T01:47:29.561Z,88917.00
2023-02-04T01:48:29.582Z,88915.00
2023-02-04T01:49:29.554Z,88911.00
2023-02-04T01:50:29.911Z,88913.00
2023-02-04T01:51:29.525Z,88917.00
2023-02-04T01:52:30.038Z,88917.00
2023-02-04T01:53:29.495Z,88923.00
2023-02-04T01:54:29.508Z,88915.00
2023-02-04T01:55:29.479Z,88909.00
2023-02-04T01:56:29.454Z,88917.00
2023-02-04T01:57:29.457Z,88919.00
2023-02-04T01:58:29.428Z,88917.00
2023-02-04T01:59:29.410Z,88919.00
2023-02-04T02:00:29.870Z,88929.00
2023-02-04T02:01:29.512Z,88927.00
2023-02-04T02:02:29.419Z,88923.00
2023-02-04T02:03:29.423Z,88925.00
2023-02-04T02:04:29.366Z,88925.00
2023-02-04T02:05:29.371Z,88927.00
2023-02-04T02:06:29.343Z,88927.00
2023-02-04T02:07:29.361Z,88921.00
2023-02-04T02:08:29.321Z,88925.00
2023-02-04T02:09:30.059Z,88925.00
2023-02-04T02:10:29.680Z,88929.00
2023-02-04T02:11:29.309Z,88927.00
2023-02-04T02:12:29.294Z,88933.00
2023-02-04T02:13:29.302Z,88927.00
2023-02-04T02:14:29.299Z,88927.00
2023-02-04T02:15:29.265Z,88927.00
2023-02-04T02:16:30.131Z,88927.00
2023-02-04T02:17:29.255Z,88929.00
2023-02-04T02:18:29.317Z,88933.00
2023-02-04T02:19:29.221Z,88938.00
2023-02-04T02:20:29.486Z,88938.00
2023-02-04T02:21:29.263Z,88935.00
2023-02-04T02:22:29.260Z,88938.00
2023-02-04T02:23:29.555Z,88944.00
2023-02-04T02:24:30.039Z,88940.00
2023-02-04T02:25:29.207Z,88938.00
2023-02-04T02:26:29.225Z,88950.00
2023-02-04T02:27:29.170Z,88954.00
2023-02-04T02:28:29.181Z,88950.00
2023-02-04T02:29:31.055Z,88944.00
2023-02-04T02:30:29.585Z,88956.00
2023-02-04T02:31:29.323Z,88958.00
2023-02-04T02:32:30.054Z,88974.00
2023-02-04T02:33:30.542Z,88978.00
2023-02-04T02:34:29.294Z,88960.00
2023-02-04T02:35:29.256Z,88956.00
2023-02-04T02:36:29.226Z,88966.00
2023-02-04T02:37:29.192Z,88962.00
2023-02-04T02:38:29.202Z,88960.00
2023-02-04T02:39:29.650Z,88970.00
2023-02-04T02:40:30.331Z,88972.00
2023-02-04T02:41:29.301Z,88974.00
2023-02-04T02:42:29.363Z,88970.00
2023-02-04T02:43:29.066Z,88972.00
2023-02-04T02:44:29.125Z,88976.00
2023-02-04T02:45:29.294Z,88968.00
2023-02-04T02:46:30.034Z,88974.00
2023-02-04T02:47:29.239Z,88972.00
2023-02-04T02:48:29.249Z,88970.00
2023-02-04T02:49:29.033Z,88978.00
2023-02-04T02:50:29.441Z,88984.00
2023-02-04T02:51:29.047Z,88980.00
2023-02-04T02:52:29.009Z,88978.00
2023-02-04T02:53:29.015Z,88978.00
2023-02-04T02:54:29.029Z,88970.00
2023-02-04T02:55:29.570Z,88970.00
2023-02-04T02:56:28.979Z,88976.00
2023-02-04T02:57:28.991Z,88982.00
2023-02-04T02:58:28.957Z,88986.00
2023-02-04T02:59:28.951Z,88986.00
2023-02-04T03:00:29.363Z,88980.00
2023-02-04T03:01:28.955Z,88980.00
2023-02-04T03:02:29.050Z,88984.00
2023-02-04T03:03:28.915Z,88986.00
2023-02-04T03:04:28.926Z,88984.00
2023-02-04T03:05:28.893Z,88984.00
2023-02-04T03:06:28.894Z,88986.00
2023-02-04T03:07:28.896Z,88991.00
2023-02-04T03:08:28.903Z,88988.00
2023-02-04T03:09:30.089Z,88988.00
2023-02-04T03:10:29.050Z,88982.00
2023-02-04T03:11:28.858Z,88982.00
2023-02-04T03:12:28.830Z,88982.00
2023-02-04T03:13:28.830Z,88978.00
2023-02-04T03:14:28.839Z,88978.00
2023-02-04T03:15:28.922Z,88978.00
2023-02-04T03:16:28.821Z,88984.00
2023-02-04T03:17:28.794Z,88986.00
2023-02-04T03:18:28.872Z,88984.00
2023-02-04T03:19:28.776Z,88982.00
2023-02-04T03:20:29.024Z,88982.00
2023-02-04T03:21:28.754Z,88982.00
2023-02-04T03:22:28.788Z,88984.00
2023-02-04T03:23:28.752Z,88986.00
2023-02-04T03:24:28.736Z,88982.00
2023-02-04T03:25:29.564Z,88982.00
2023-02-04T03:26:28.724Z,88984.00
2023-02-04T03:27:28.724Z,88990.00
2023-02-04T03:28:28.692Z,88990.00
2023-02-04T03:29:29.861Z,88993.00
2023-02-04T03:30:28.706Z,88993.00
2023-02-04T03:31:28.792Z,88997.00
2023-02-04T03:32:28.691Z,88995.00
2023-02-04T03:33:28.656Z,88990.00
2023-02-04T03:34:28.672Z,88995.00
2023-02-04T03:35:28.640Z,88995.00
2023-02-04T03:36:28.625Z,88997.00
2023-02-04T03:37:28.623Z,88999.00
2023-02-04T03:38:28.630Z,88999.00
2023-02-04T03:39:28.595Z,89012.00
2023-02-04T03:40:29.014Z,89003.00
2023-02-04T03:41:28.578Z,89003.00
2023-02-04T03:42:29.064Z,89003.00
2023-02-04T03:43:28.566Z,88999.00
2023-02-04T03:44:28.572Z,89003.00
2023-02-04T03:45:37.490Z,89016.00
2023-02-04T03:46:30.117Z,89016.00
2023-02-04T03:47:28.546Z,89018.00
2023-02-04T03:48:29.068Z,89014.00
2023-02-04T03:49:28.512Z,89012.00
2023-02-04T03:50:28.497Z,89012.00
2023-02-04T03:51:28.514Z,89005.00
2023-02-04T03:52:28.483Z,89014.00
2023-02-04T03:53:28.486Z,89016.00
2023-02-04T03:54:28.474Z,89020.00
2023-02-04T03:55:28.603Z,89016.00
2023-02-04T03:56:28.451Z,89016.00
2023-02-04T03:57:28.425Z,89020.00
2023-02-04T03:58:28.427Z,89024.00
2023-02-04T03:59:28.415Z,89024.00
2023-02-04T04:00:28.464Z,89022.00
2023-02-04T04:01:28.417Z,89012.00
2023-02-04T04:02:28.407Z,89012.00
2023-02-04T04:03:28.380Z,89012.00
2023-02-04T04:04:28.350Z,89016.00
2023-02-04T04:05:28.368Z,89014.00
2023-02-04T04:06:28.352Z,89024.00
2023-02-04T04:07:28.336Z,89030.00
2023-02-04T04:08:28.311Z,89022.00
2023-02-04T04:09:28.314Z,89022.00
2023-02-04T04:10:28.313Z,89022.00
2023-02-04T04:11:28.297Z,89028.00
2023-02-04T04:12:28.271Z,89028.00
2023-02-04T04:13:28.273Z,89024.00
2023-02-04T04:14:28.240Z,89016.00
2023-02-04T04:15:28.247Z,89022.00
2023-02-04T04:16:28.229Z,89024.00
2023-02-04T04:17:28.217Z,89030.00
2023-02-04T04:18:28.227Z,89036.00
2023-02-04T04:19:28.221Z,89042.00
2023-02-04T04:20:28.187Z,89036.00
2023-02-04T04:21:28.173Z,89044.00
2023-02-04T04:22:28.143Z,89050.00
2023-02-04T04:23:28.128Z,89051.00
2023-02-04T04:24:28.129Z,89050.00
2023-02-04T04:25:28.126Z,89053.00
2023-02-04T04:26:28.087Z,89055.00
2023-02-04T04:27:28.126Z,89053.00
2023-02-04T04:28:28.061Z,89059.00
2023-02-04T04:29:28.048Z,89069.00
2023-02-04T04:30:28.053Z,89061.00
2023-02-04T04:31:28.120Z,89059.00
2023-02-04T04:32:28.017Z,89061.00
2023-02-04T04:33:28.004Z,89059.00
2023-02-04T04:34:28.010Z,89061.00
2023-02-04T04:35:28.024Z,89061.00
2023-02-04T04:36:27.957Z,89057.00
2023-02-04T04:37:27.938Z,89061.00
2023-02-04T04:38:27.943Z,89063.00
2023-02-04T04:39:27.936Z,89059.00
2023-02-04T04:40:28.165Z,89063.00
2023-02-04T04:41:27.916Z,89069.00
2023-02-04T04:42:27.907Z,89065.00
2023-02-04T04:43:27.872Z,89069.00
2023-02-04T04:44:27.876Z,89061.00
2023-02-04T04:45:27.891Z,89071.00
2023-02-04T04:46:27.895Z,89073.00
2023-02-04T04:47:27.816Z,89079.00
2023-02-04T04:48:27.817Z,89079.00
2023-02-04T04:49:27.809Z,89075.00
2023-02-04T04:50:27.818Z,89071.00
2023-02-04T04:51:27.796Z,89071.00
2023-02-04T04:52:27.841Z,89075.00
2023-02-04T04:53:27.753Z,89081.00
2023-02-04T04:54:27.756Z,89081.00
2023-02-04T04:55:27.732Z,89083.00
2023-02-04T04:56:27.734Z,89085.00
2023-02-04T04:57:28.628Z,89081.00
2023-02-04T04:58:27.687Z,89085.00
2023-02-04T04:59:27.690Z,89087.00
2023-02-04T05:00:27.657Z,89083.00
2023-02-04T05:01:27.684Z,89085.00
2023-02-04T05:02:27.652Z,89095.00
2023-02-04T05:03:27.636Z,89087.00
2023-02-04T05:04:27.631Z,89091.00
2023-02-04T05:05:27.600Z,89089.00
2023-02-04T05:06:27.600Z,89091.00
2023-02-04T05:07:27.615Z,89085.00
2023-02-04T05:08:27.572Z,89085.00
2023-02-04T05:09:27.536Z,89089.00
2023-02-04T05:10:27.518Z,89089.00
2023-02-04T05:11:27.529Z,89089.00
2023-02-04T05:12:27.486Z,89091.00
2023-02-04T05:13:27.469Z,89089.00
2023-02-04T05:14:27.478Z,89085.00
2023-02-04T05:15:27.457Z,89089.00
2023-02-04T05:16:27.513Z,89093.00
2023-02-04T05:17:28.690Z,89091.00
2023-02-04T05:18:28.140Z,89085.00
2023-02-04T05:19:27.541Z,89081.00
2023-02-04T05:20:27.403Z,89089.00
2023-02-04T05:21:27.392Z,89089.00
2023-02-04T05:22:27.364Z,89081.00
2023-02-04T05:23:27.328Z,89081.00
2023-02-04T05:24:27.325Z,89081.00
2023-02-04T05:25:27.292Z,89079.00
2023-02-04T05:26:30.475Z,89085.00
2023-02-04T05:27:27.272Z,89087.00
2023-02-04T05:28:27.261Z,89089.00
2023-02-04T05:29:27.238Z,89081.00
2023-02-04T05:30:27.309Z,89087.00
2023-02-04T05:31:27.245Z,89083.00
2023-02-04T05:32:27.187Z,89093.00
2023-02-04T05:33:27.180Z,89095.00
2023-02-04T05:34:27.193Z,89103.00
2023-02-04T05:35:27.174Z,89106.00
2023-02-04T05:36:27.133Z,89106.00
2023-02-04T05:37:27.108Z,89112.00
2023-02-04T05:38:27.225Z,89110.00
2023-02-04T05:39:27.066Z,89103.00
2023-02-04T05:40:27.051Z,89110.00
2023-02-04T05:41:27.041Z,89110.00
2023-02-04T05:42:27.006Z,89101.00
2023-02-04T05:43:26.998Z,89105.00
2023-02-04T05:44:27.652Z,89106.00
2023-02-04T05:45:27.003Z,89103.00
2023-02-04T05:46:26.967Z,89108.00
2023-02-04T05:47:26.939Z,89110.00
2023-02-04T05:48:26.953Z,89114.00
2023-02-04T05:49:26.911Z,89120.00
2023-02-04T05:50:26.895Z,89116.00
2023-02-04T05:51:26.911Z,89116.00
2023-02-04T05:52:26.873Z,89120.00
2023-02-04T05:53:26.855Z,89126.00
2023-02-04T05:54:26.820Z,89126.00
2023-02-04T05:55:26.814Z,89128.00
2023-02-04T05:56:26.841Z,89130.00
2023-02-04T05:57:26.814Z,89134.00
2023-02-04T05:58:26.851Z,89132.00
2023-02-04T05:59:26.788Z,89132.00
2023-02-04T06:00:26.788Z,89134.00
2023-02-04T06:01:26.769Z,89132.00
2023-02-04T06:02:26.744Z,89138.00
2023-02-04T06:03:26.812Z,89140.00
2023-02-04T06:04:26.767Z,89136.00
2023-02-04T06:05:26.749Z,89140.00
2023-02-04T06:06:26.702Z,89146.00
2023-02-04T06:07:26.690Z,89148.00
2023-02-04T06:08:26.680Z,89148.00
2023-02-04T06:09:27.620Z,89146.00
2023-02-04T06:10:26.657Z,89138.00
2023-02-04T06:11:26.634Z,89142.00
2023-02-04T06:12:26.633Z,89144.00
2023-02-04T06:13:26.689Z,89152.00
2023-02-04T06:14:26.601Z,89152.00
2023-02-04T06:15:26.605Z,89153.00
2023-02-04T06:16:26.595Z,89150.00
2023-02-04T06:17:26.582Z,89148.00
2023-02-04T06:18:26.573Z,89152.00
2023-02-04T06:19:26.549Z,89152.00
2023-02-04T06:20:26.540Z,89155.00
2023-02-04T06:21:26.514Z,89152.00
2023-02-04T06:22:26.527Z,89152.00
2023-02-04T06:23:26.482Z,89152.00
2023-02-04T06:24:26.475Z,89155.00
2023-02-04T06:25:26.459Z,89160.00
2023-02-04T06:26:26.446Z,89158.00
2023-02-04T06:27:26.445Z,89160.00
2023-02-04T06:28:26.414Z,89161.00
2023-02-04T06:29:26.420Z,89155.00
2023-02-04T06:30:26.441Z,89158.00
2023-02-04T06:31:26.492Z,89160.00
2023-02-04T06:32:26.400Z,89155.00
2023-02-04T06:33:26.361Z,89158.00
2023-02-04T06:34:26.357Z,89155.00
2023-02-04T06:35:26.373Z,89155.00
2023-02-04T06:36:26.298Z,89158.00
2023-02-04T06:37:26.301Z,89161.00
2023-02-04T06:38:26.270Z,89163.00
2023-02-04T06:39:26.276Z,89163.00
2023-02-04T06:40:26.270Z,89161.00
2023-02-04T06:41:26.288Z,89161.00
2023-02-04T06:42:26.279Z,89165.00
2023-02-04T06:43:26.207Z,89155.00
2023-02-04T06:44:26.211Z,89169.00
2023-02-04T06:45:26.179Z,89167.00
2023-02-04T06:46:26.324Z,89173.00
2023-02-04T06:47:26.160Z,89177.00
2023-02-04T06:48:26.172Z,89173.00
2023-02-04T06:49:26.140Z,89177.00
2023-02-04T06:50:26.131Z,89179.00
2023-02-04T06:51:26.110Z,89179.00
2023-02-04T06:52:26.090Z,89187.00
2023-02-04T06:53:26.123Z,89191.00
2023-02-04T06:54:26.089Z,89189.00
2023-02-04T06:55:26.077Z,89185.00
2023-02-04T06:56:26.084Z,89189.00
2023-02-04T06:57:26.066Z,89191.00
2023-02-04T06:58:26.053Z,89191.00
2023-02-04T06:59:26.024Z,89191.00
2023-02-04T07:00:26.026Z,89197.00
2023-02-04T07:01:26.108Z,89199.00
2023-02-04T07:02:26.058Z,89202.00
2023-02-04T07:03:25.992Z,89202.00
2023-02-04T07:04:25.993Z,89200.00
2023-02-04T07:05:25.976Z,89207.00
2023-02-04T07:06:25.969Z,89210.00
2023-02-04T07:07:25.979Z,89208.00
2023-02-04T07:08:25.969Z,89212.00
2023-02-04T07:09:25.935Z,89218.00
2023-02-04T07:10:25.945Z,89214.00
2023-02-04T07:11:25.934Z,89214.00
2023-02-04T07:12:25.911Z,89224.00
2023-02-04T07:13:25.926Z,89222.00
2023-02-04T07:14:25.881Z,89224.00
2023-02-04T07:15:25.890Z,89220.00
2023-02-04T07:16:25.875Z,89224.00
2023-02-04T07:17:25.869Z,89226.00
2023-02-04T07:18:25.887Z,89220.00
2023-02-04T07:19:25.852Z,89220.00
2023-02-04T07:20:25.847Z,89222.00
2023-02-04T07:21:25.833Z,89230.00
2023-02-04T07:22:25.837Z,89230.00
2023-02-04T07:23:25.842Z,89232.00
2023-02-04T07:24:25.819Z,89234.00
2023-02-04T07:25:25.834Z,89234.00
2023-02-04T07:26:25.806Z,89232.00
2023-02-04T07:27:25.804Z,89240.00
2023-02-04T07:28:25.780Z,89240.00
2023-02-04T07:29:26.135Z,89242.00
2023-02-04T07:30:25.749Z,89238.00
2023-02-04T07:31:25.928Z,89238.00
2023-02-04T07:32:25.756Z,89240.00
2023-02-04T07:33:25.773Z,89242.00
2023-02-04T07:34:25.741Z,89236.00
2023-02-04T07:35:25.708Z,89244.00
2023-02-04T07:36:25.752Z,89234.00
2023-02-04T07:37:25.683Z,89234.00
2023-02-04T07:38:25.704Z,89238.00
2023-02-04T07:39:25.705Z,89238.00
2023-02-04T07:40:25.681Z,89240.00
2023-02-04T07:41:25.649Z,89244.00
2023-02-04T07:42:25.659Z,89238.00
2023-02-04T07:43:25.658Z,89240.00
2023-02-04T07:44:25.629Z,89236.00
2023-02-04T07:45:25.628Z,89232.00
2023-02-04T07:46:25.608Z,89238.00
2023-02-04T07:47:25.613Z,89246.00
2023-02-04T07:48:25.577Z,89242.00
2023-02-04T07:49:25.562Z,89238.00
2023-02-04T07:50:25.570Z,89240.00
2023-02-04T07:51:27.567Z,89242.00
2023-02-04T07:52:25.531Z,89238.00
2023-02-04T07:53:25.522Z,89236.00
2023-02-04T07:54:25.515Z,89238.00
2023-02-04T07:55:25.510Z,89240.00
2023-02-04T07:56:25.498Z,89240.00
2023-02-04T07:57:25.493Z,89236.00
2023-02-04T07:58:25.502Z,89238.00
2023-02-04T07:59:25.486Z,89238.00
2023-02-04T08:00:25.473Z,89234.00
2023-02-04T08:05:27.157Z,89242.00
2023-02-04T08:34:25.171Z,89257.00
2023-02-04T08:35:25.179Z,89254.00
2023-02-04T08:36:25.160Z,89257.00
2023-02-04T08:37:25.130Z,89257.00
2023-02-04T08:38:25.115Z,89259.00
2023-02-04T08:39:25.112Z,89259.00
2023-02-04T08:40:25.147Z,89259.00
2023-02-04T08:41:25.085Z,89252.00
2023-02-04T08:42:25.085Z,89254.00
2023-02-04T08:43:25.071Z,89252.00
2023-02-04T08:44:25.170Z,89255.00
2023-02-04T08:45:25.057Z,89254.00
2023-02-04T08:46:25.135Z,89252.00
2023-02-04T08:47:27.803Z,89248.00
2023-02-04T08:48:25.040Z,89248.00
2023-02-04T08:49:25.044Z,89246.00
2023-02-04T08:50:25.123Z,89246.00
2023-02-04T08:51:25.021Z,89244.00
2023-02-04T08:52:25.032Z,89240.00
2023-02-04T08:53:25.017Z,89240.00
2023-02-04T08:54:25.021Z,89238.00
2023-02-04T08:55:24.999Z,89238.00
2023-02-04T08:56:24.993Z,89240.00
2023-02-04T08:57:25.005Z,89240.00
2023-02-04T08:58:24.983Z,89236.00
2023-02-04T08:59:24.951Z,89236.00
2023-02-04T09:00:25.024Z,89238.00
2023-02-04T09:01:24.990Z,89234.00
2023-02-04T09:02:24.981Z,89234.00
2023-02-04T09:03:24.918Z,89240.00
2023-02-04T09:04:24.918Z,89238.00
2023-02-04T09:05:24.919Z,89234.00
2023-02-04T09:06:24.896Z,89236.00
2023-02-04T09:07:24.878Z,89236.00
2023-02-04T09:08:24.872Z,89228.00
2023-02-04T09:09:26.331Z,89228.00
2023-02-04T09:10:24.906Z,89226.00
2023-02-04T09:11:24.834Z,89226.00
2023-02-04T09:12:24.808Z,89222.00
2023-02-04T09:13:24.813Z,89222.00
2023-02-04T09:14:24.792Z,89220.00
2023-02-04T09:15:24.795Z,89224.00
2023-02-04T09:16:24.862Z,89224.00
2023-02-04T09:17:24.763Z,89224.00
2023-02-04T09:18:24.741Z,89226.00
2023-02-04T09:19:24.753Z,89220.00
2023-02-04T09:20:24.720Z,89222.00
2023-02-04T09:21:24.720Z,89220.00
2023-02-04T09:22:24.710Z,89220.00
2023-02-04T09:23:24.711Z,89220.00
2023-02-04T09:24:24.688Z,89220.00
2023-02-04T09:25:24.683Z,89222.00
2023-02-04T09:26:24.653Z,89224.00
2023-02-04T09:27:24.666Z,89228.00
2023-02-04T09:28:24.637Z,89230.00
2023-02-04T09:29:24.649Z,89230.00
2023-02-04T09:30:24.627Z,89220.00
2023-02-04T09:31:24.727Z,89228.00
2023-02-04T09:32:24.606Z,89230.00
2023-02-04T09:33:24.600Z,89232.00
2023-02-04T09:34:24.584Z,89232.00
2023-02-04T09:35:24.615Z,89228.00
2023-02-04T09:36:24.574Z,89230.00
2023-02-04T09:37:24.562Z,89230.00
2023-02-04T09:38:24.571Z,89228.00
2023-02-04T09:39:24.537Z,89232.00
2023-02-04T09:40:24.539Z,89232.00
2023-02-04T09:41:24.524Z,89232.00
2023-02-04T09:42:24.491Z,89236.00
2023-02-04T09:43:24.462Z,89236.00
2023-02-04T09:44:24.468Z,89242.00
2023-02-04T09:45:24.831Z,89240.00
2023-02-04T09:46:24.453Z,89244.00
2023-02-04T09:47:24.459Z,89246.00
2023-02-04T09:48:24.416Z,89248.00
2023-02-04T09:49:24.407Z,89248.00
2023-02-04T09:50:24.419Z,89246.00
2023-02-04T09:51:24.401Z,89248.00
2023-02-04T09:52:24.358Z,89254.00
2023-02-04T09:53:24.366Z,89257.00
2023-02-04T09:54:24.334Z,89255.00
2023-02-04T09:55:24.298Z,89252.00
2023-02-04T09:56:24.307Z,89257.00
2023-02-04T09:57:24.269Z,89257.00
2023-02-04T09:58:24.230Z,89255.00
2023-02-04T09:59:24.273Z,89254.00
2023-02-04T10:00:24.224Z,89254.00
2023-02-04T10:01:24.226Z,89252.00
2023-02-04T10:02:24.166Z,89248.00
2023-02-04T10:03:24.188Z,89246.00
2023-02-04T10:04:24.720Z,89246.00
2023-02-04T10:05:24.104Z,89240.00
2023-02-04T10:06:24.135Z,89242.00
2023-02-04T10:07:24.056Z,89238.00
2023-02-04T10:08:24.058Z,89236.00
2023-02-04T10:09:24.026Z,89238.00
2023-02-04T10:10:24.004Z,89234.00
2023-02-04T10:11:24.002Z,89236.00
2023-02-04T10:12:23.974Z,89246.00
2023-02-04T10:13:23.946Z,89240.00
2023-02-04T10:14:23.946Z,89232.00
2023-02-04T10:15:23.921Z,89236.00
2023-02-04T10:16:23.928Z,89230.00
2023-02-04T10:17:23.875Z,89226.00
2023-02-04T10:18:23.863Z,89224.00
2023-02-04T10:19:23.891Z,89228.00
2023-02-04T10:20:23.850Z,89230.00
2023-02-04T10:21:23.852Z,89238.00
2023-02-04T10:22:23.901Z,89232.00
2023-02-04T10:23:23.781Z,89234.00
2023-02-04T10:24:23.749Z,89234.00
2023-02-04T10:25:23.752Z,89226.00
2023-02-04T10:26:23.713Z,89222.00
2023-02-04T10:27:23.747Z,89224.00
2023-02-04T10:28:23.674Z,89218.00
2023-02-04T10:29:23.644Z,89220.00
2023-02-04T10:30:23.653Z,89232.00
2023-02-04T10:31:23.734Z,89224.00
2023-02-04T10:32:23.595Z,89226.00
2023-02-04T10:33:23.581Z,89232.00
2023-02-04T10:34:23.564Z,89230.00
2023-02-04T10:35:23.534Z,89228.00
2023-02-04T10:36:23.520Z,89224.00
2023-02-04T10:37:23.497Z,89220.00
2023-02-04T10:38:23.498Z,89216.00
2023-02-04T10:39:23.477Z,89218.00
2023-02-04T10:40:23.466Z,89226.00
2023-02-04T10:41:23.479Z,89230.00
2023-02-04T10:42:23.412Z,89230.00
2023-02-04T10:43:23.397Z,89222.00
2023-02-04T10:44:23.397Z,89216.00
2023-02-04T10:45:23.397Z,89222.00
2023-02-04T10:46:23.350Z,89232.00
2023-02-04T10:47:23.762Z,89222.00
2023-02-04T10:48:23.412Z,89230.00
2023-02-04T10:49:23.423Z,89226.00
2023-02-04T10:50:23.275Z,89224.00
2023-02-04T10:51:23.279Z,89230.00
2023-02-04T10:52:23.270Z,89222.00
2023-02-04T10:53:23.222Z,89220.00
2023-02-04T10:54:23.195Z,89218.00
2023-02-04T10:55:23.209Z,89222.00
2023-02-04T10:56:23.212Z,89218.00
2023-02-04T10:57:23.190Z,89224.00
2023-02-04T10:58:23.151Z,89218.00
2023-02-04T10:59:23.114Z,89220.00
2023-02-04T11:00:23.087Z,89218.00
2023-02-04T11:01:23.096Z,89216.00
2023-02-04T11:02:23.037Z,89214.00
2023-02-04T11:03:23.075Z,89210.00
2023-02-04T11:04:23.005Z,89210.00
2023-02-04T11:05:23.017Z,89218.00
2023-02-04T11:06:22.988Z,89216.00
2023-02-04T11:07:22.967Z,89214.00
2023-02-04T11:08:22.950Z,89216.00
2023-02-04T11:09:22.936Z,89216.00
2023-02-04T11:10:22.928Z,89220.00
2023-02-04T11:11:22.880Z,89224.00
2023-02-04T11:12:23.240Z,89224.00
2023-02-04T11:13:22.841Z,89216.00
2023-02-04T11:14:22.868Z,89216.00
2023-02-04T11:15:22.814Z,89214.00
2023-02-04T11:16:22.820Z,89222.00
2023-02-04T11:17:22.785Z,89220.00
2023-02-04T11:18:22.802Z,89212.00
2023-02-04T11:19:22.756Z,89212.00
2023-02-04T11:20:22.754Z,89214.00
2023-02-04T11:21:22.708Z,89208.00
2023-02-04T11:22:22.715Z,89212.00
2023-02-04T11:23:22.684Z,89208.00
2023-02-04T11:24:22.652Z,89212.00
2023-02-04T11:25:22.637Z,89214.00
2023-02-04T11:26:22.656Z,89220.00
2023-02-04T11:27:22.593Z,89218.00
2023-02-04T11:28:22.565Z,89222.00
2023-02-04T11:29:22.550Z,89218.00
2023-02-04T11:30:22.544Z,89222.00
2023-02-04T11:31:22.635Z,89214.00
2023-02-04T11:32:22.488Z,89208.00
2023-02-04T11:33:22.476Z,89222.00
2023-02-04T11:34:22.467Z,89210.00
2023-02-04T11:35:22.454Z,89218.00
2023-02-04T11:36:22.390Z,89208.00
2023-02-04T11:37:22.401Z,89210.00
2023-02-04T11:38:22.355Z,89220.00
2023-02-04T11:39:22.366Z,89216.00
2023-02-04T11:40:22.320Z,89214.00
2023-02-04T11:41:22.297Z,89216.00
2023-02-04T11:42:22.294Z,89218.00
2023-02-04T11:43:22.257Z,89220.00
2023-02-04T11:44:22.241Z,89218.00
2023-02-04T11:45:22.219Z,89222.00
2023-02-04T11:46:22.208Z,89222.00
2023-02-04T11:47:22.203Z,89232.00
2023-02-04T11:48:22.162Z,89228.00
2023-02-04T11:49:22.136Z,89220.00
2023-02-04T11:50:22.131Z,89220.00
2023-02-04T11:51:22.102Z,89214.00
2023-02-04T11:52:22.090Z,89216.00
2023-02-04T11:53:22.048Z,89220.00
2023-02-04T11:54:22.032Z,89220.00
2023-02-04T11:55:22.024Z,89226.00
2023-02-04T11:56:22.010Z,89224.00
2023-02-04T11:57:21.970Z,89226.00
2023-02-04T11:58:21.952Z,89236.00
2023-02-04T11:59:22.792Z,89238.00
2023-02-04T12:00:21.910Z,89236.00
2023-02-04T12:01:21.928Z,89226.00
2023-02-04T12:02:21.924Z,89230.00
2023-02-04T12:03:21.922Z,89232.00
2023-02-04T12:04:21.853Z,89238.00
2023-02-04T12:05:21.818Z,89232.00
2023-02-04T12:06:21.791Z,89240.00
2023-02-04T12:07:21.817Z,89236.00
2023-02-04T12:08:21.779Z,89236.00
2023-02-04T12:09:21.745Z,89242.00
2023-02-04T12:10:21.714Z,89242.00
2023-02-04T12:11:21.692Z,89246.00
2023-02-04T12:12:21.698Z,89242.00
2023-02-04T12:13:21.649Z,89250.00
2023-02-04T12:14:21.649Z,89244.00
2023-02-04T12:15:21.621Z,89248.00
2023-02-04T12:16:21.639Z,89246.00